Time;durP1;ratioP1;P1;durP2;ratioP2;P2;SDS_P1;SDS_P2;PMS_P1;PMS_P2;Temp;Humidity;BMP_temperature;BMP_pressure;BME280_temperature;BME280_humidity;BME280_pressure;Samples;Min_cycle;Max_cycle;Signal;HPM_P1;HPM_P2
2022/07/18 00:00:06;;;;;;;5.03;2.88;;;14.90;99.90;;;;;;5075279;28;20036;-74
2022/07/18 00:02:33;;;;;;;5.88;2.90;;;14.90;99.90;;;;;;5073442;28;20052;-75
2022/07/18 00:05:01;;;;;;;6.15;2.85;;;14.90;99.90;;;;;;5074811;28;20119;-76
2022/07/18 00:07:28;;;;;;;6.47;2.90;;;14.80;99.90;;;;;;5075000;28;20087;-76
2022/07/18 00:09:55;;;;;;;8.05;3.00;;;14.70;99.90;;;;;;5074310;28;20036;-76
2022/07/18 00:12:23;;;;;;;10.88;3.17;;;14.70;99.90;;;;;;5074524;28;20200;-75
2022/07/18 00:14:51;;;;;;;6.43;2.92;;;14.60;99.90;;;;;;5074539;28;20067;-77
2022/07/18 00:17:19;;;;;;;7.00;3.30;;;14.60;99.90;;;;;;5075335;28;20036;-76
2022/07/18 00:19:47;;;;;;;5.95;3.30;;;14.60;99.90;;;;;;5076744;28;20505;-77
2022/07/18 00:22:14;;;;;;;5.45;3.03;;;14.60;99.90;;;;;;5081471;28;20048;-77
2022/07/18 00:24:41;;;;;;;5.90;2.72;;;14.50;99.90;;;;;;5096805;28;20090;-76
2022/07/18 00:27:08;;;;;;;5.47;2.53;;;14.50;99.90;;;;;;5097541;28;20044;-77
2022/07/18 00:29:38;;;;;;;5.75;2.70;;;14.50;99.90;;;;;;5082073;28;20037;-75
2022/07/18 00:32:09;;;;;;;4.63;2.75;;;14.40;99.90;;;;;;5076051;28;20040;-77
2022/07/18 00:34:37;;;;;;;5.00;2.60;;;14.40;99.90;;;;;;5076418;28;20032;-77
2022/07/18 00:37:04;;;;;;;4.82;2.65;;;14.20;99.90;;;;;;5087494;28;20029;-76
2022/07/18 00:39:32;;;;;;;4.65;2.80;;;14.20;99.90;;;;;;5087432;28;20033;-76
2022/07/18 00:42:00;;;;;;;6.03;2.90;;;14.10;99.90;;;;;;5077623;28;20068;-76
2022/07/18 00:44:29;;;;;;;10.10;2.65;;;14.10;99.90;;;;;;5075034;28;20040;-77
2022/07/18 00:46:59;;;;;;;5.38;2.80;;;14.10;99.90;;;;;;5074574;28;20041;-78
2022/07/18 00:49:29;;;;;;;7.55;2.90;;;14.00;99.90;;;;;;5095203;28;20052;-76
2022/07/18 00:51:56;;;;;;;4.90;2.70;;;14.00;99.90;;;;;;5095308;28;20040;-76
2022/07/18 00:54:26;;;;;;;4.72;2.58;;;13.90;99.90;;;;;;5095566;28;20032;-76
2022/07/18 00:56:54;;;;;;;7.35;2.47;;;13.90;99.90;;;;;;5093758;28;20052;-76
2022/07/18 00:59:21;;;;;;;4.20;2.50;;;13.90;99.90;;;;;;5105295;28;20058;-76
2022/07/18 01:01:48;;;;;;;4.70;2.63;;;13.80;99.90;;;;;;5102604;28;20414;-76
2022/07/18 01:04:18;;;;;;;6.75;2.72;;;13.80;99.90;;;;;;5099818;28;20036;-77
2022/07/18 01:06:47;;;;;;;7.07;2.70;;;13.80;99.90;;;;;;5106628;28;20498;-76
2022/07/18 01:09:15;;;;;;;8.63;4.53;;;13.80;99.90;;;;;;5089494;28;20404;-76
2022/07/18 01:11:44;;;;;;;5.60;2.85;;;13.70;99.90;;;;;;5101808;28;20043;-76
2022/07/18 01:14:11;;;;;;;9.32;2.85;;;13.60;99.90;;;;;;5093822;28;20048;-76
2022/07/18 01:16:39;;;;;;;10.60;5.57;;;13.50;99.90;;;;;;5094589;28;20046;-76
2022/07/18 01:19:06;;;;;;;7.25;3.92;;;13.50;99.90;;;;;;5094650;28;20449;-75
2022/07/18 01:21:36;;;;;;;9.60;2.75;;;13.40;99.90;;;;;;5094936;28;20571;-76
2022/07/18 01:24:04;;;;;;;4.60;2.38;;;13.50;99.90;;;;;;5093940;28;20040;-75
2022/07/18 01:26:32;;;;;;;4.75;2.65;;;13.40;99.90;;;;;;5076983;28;20067;-78
2022/07/18 01:28:59;;;;;;;3.70;2.53;;;13.30;99.90;;;;;;5076075;28;20176;-76
2022/07/18 01:31:27;;;;;;;4.93;2.60;;;13.30;99.90;;;;;;5094204;28;20097;-77
2022/07/18 01:33:55;;;;;;;5.85;2.53;;;13.20;99.90;;;;;;5076468;28;20450;-76
2022/07/18 01:36:22;;;;;;;8.52;2.40;;;13.20;99.90;;;;;;5094362;28;20055;-77
2022/07/18 01:38:51;;;;;;;5.47;2.50;;;13.20;99.90;;;;;;5094486;28;20051;-76
2022/07/18 01:41:19;;;;;;;5.20;2.80;;;13.10;99.90;;;;;;5094318;28;20120;-77
2022/07/18 01:43:46;;;;;;;4.97;2.30;;;13.20;99.90;;;;;;5080411;28;20048;-77
2022/07/18 01:46:13;;;;;;;5.18;2.50;;;13.20;99.90;;;;;;5102816;28;20090;-77
2022/07/18 01:48:41;;;;;;;4.05;2.33;;;13.10;99.90;;;;;;5077592;28;20057;-77
2022/07/18 01:51:10;;;;;;;6.30;3.08;;;13.10;99.90;;;;;;5077030;28;20048;-78
2022/07/18 01:53:38;;;;;;;4.38;2.45;;;13.00;99.90;;;;;;5076316;28;20049;-76
2022/07/18 01:56:08;;;;;;;4.47;2.70;;;12.90;99.90;;;;;;5076805;28;20071;-77
2022/07/18 01:58:36;;;;;;;4.20;2.17;;;12.80;99.90;;;;;;5076113;28;20041;-77
2022/07/18 02:01:04;;;;;;;5.57;3.03;;;12.80;99.90;;;;;;5075252;28;20044;-77
2022/07/18 02:03:31;;;;;;;5.82;2.60;;;12.90;99.90;;;;;;5075690;28;20083;-76
2022/07/18 02:05:59;;;;;;;3.70;2.50;;;12.90;99.90;;;;;;5082739;28;20048;-76
2022/07/18 02:08:26;;;;;;;6.28;2.50;;;12.80;99.90;;;;;;5081451;28;20066;-76
2022/07/18 02:10:53;;;;;;;4.45;2.38;;;12.80;99.90;;;;;;5082555;28;20048;-76
2022/07/18 02:13:22;;;;;;;4.13;2.70;;;12.80;99.90;;;;;;5078932;28;20102;-77
2022/07/18 02:15:49;;;;;;;5.05;2.83;;;12.70;99.90;;;;;;5089486;28;20067;-79
2022/07/18 02:18:17;;;;;;;6.22;2.50;;;12.70;99.90;;;;;;5079495;28;20049;-77
2022/07/18 02:20:44;;;;;;;6.32;3.03;;;12.70;99.90;;;;;;5081989;28;20578;-77
2022/07/18 02:23:11;;;;;;;5.20;2.70;;;12.60;99.90;;;;;;5077487;28;20041;-77
2022/07/18 02:25:39;;;;;;;4.55;2.65;;;12.60;99.90;;;;;;5074463;28;20051;-76
2022/07/18 02:28:06;;;;;;;6.78;2.88;;;12.60;99.90;;;;;;5075199;28;20040;-77
2022/07/18 02:30:35;;;;;;;5.13;2.50;;;12.40;99.90;;;;;;5075118;28;20126;-76
2022/07/18 02:33:02;;;;;;;5.88;2.63;;;12.40;99.90;;;;;;5076243;28;20051;-76
2022/07/18 02:35:30;;;;;;;4.53;2.33;;;12.30;99.90;;;;;;5076500;28;20068;-77
2022/07/18 02:37:57;;;;;;;7.18;3.03;;;12.20;99.90;;;;;;5076073;28;20047;-75
2022/07/18 02:40:25;;;;;;;6.35;2.60;;;12.20;99.90;;;;;;5078165;28;20045;-76
2022/07/18 02:42:52;;;;;;;5.22;2.63;;;12.30;99.90;;;;;;5091690;28;20055;-75
2022/07/18 02:45:20;;;;;;;4.32;2.47;;;12.30;99.90;;;;;;5094233;28;20048;-76
2022/07/18 02:47:48;;;;;;;4.55;2.40;;;12.20;99.90;;;;;;5054317;28;1270611;-77
2022/07/18 02:50:16;;;;;;;5.32;2.30;;;12.20;99.90;;;;;;5111091;28;20044;-77
2022/07/18 02:52:43;;;;;;;3.90;2.22;;;12.20;99.90;;;;;;5080236;28;20127;-76
2022/07/18 02:55:12;;;;;;;9.85;3.00;;;12.20;99.90;;;;;;5096447;28;20040;-77
2022/07/18 02:57:41;;;;;;;5.18;2.97;;;12.20;99.90;;;;;;5100986;28;20055;-77
2022/07/18 03:00:12;;;;;;;6.28;2.78;;;12.20;99.90;;;;;;5082041;28;20056;-76
2022/07/18 03:02:39;;;;;;;5.72;2.22;;;12.20;99.90;;;;;;5096715;28;20101;-75
2022/07/18 03:05:09;;;;;;;5.10;2.50;;;12.10;99.90;;;;;;5079724;28;20514;-75
2022/07/18 03:07:36;;;;;;;4.35;2.20;;;12.10;99.90;;;;;;5102927;28;20511;-77
2022/07/18 03:10:05;;;;;;;2.83;2.22;;;12.00;99.90;;;;;;5101578;28;20051;-75
2022/07/18 03:12:33;;;;;;;5.65;2.85;;;12.00;99.90;;;;;;5097320;28;20040;-77
2022/07/18 03:15:00;;;;;;;7.22;2.75;;;12.00;99.90;;;;;;5097308;28;20483;-76
2022/07/18 03:17:27;;;;;;;5.65;2.65;;;11.90;99.90;;;;;;5097301;28;20036;-76
2022/07/18 03:19:55;;;;;;;5.97;2.67;;;11.80;99.90;;;;;;5095797;28;20127;-76
2022/07/18 03:22:23;;;;;;;7.70;2.80;;;11.70;99.90;;;;;;5095889;28;20040;-75
2022/07/18 03:24:51;;;;;;;6.47;2.80;;;11.80;99.90;;;;;;5095919;28;20119;-77
2022/07/18 03:27:18;;;;;;;4.05;2.83;;;11.80;99.90;;;;;;5095891;28;20048;-77
2022/07/18 03:29:45;;;;;;;3.92;2.58;;;11.90;99.90;;;;;;5095929;28;20089;-75
2022/07/18 03:32:13;;;;;;;4.95;2.67;;;11.90;99.90;;;;;;5096312;28;20078;-77
2022/07/18 03:34:40;;;;;;;3.50;2.25;;;11.90;99.90;;;;;;5096312;28;20044;-76
2022/07/18 03:37:08;;;;;;;6.50;3.65;;;11.90;99.90;;;;;;5080106;28;20044;-76
2022/07/18 03:39:37;;;;;;;7.75;3.88;;;11.90;99.90;;;;;;5106091;28;20214;-77
2022/07/18 03:42:04;;;;;;;9.25;3.70;;;12.00;99.90;;;;;;5084126;28;20140;-76
2022/07/18 03:44:31;;;;;;;7.28;3.50;;;12.00;99.90;;;;;;5095829;28;20123;-75
2022/07/18 03:46:59;;;;;;;5.05;3.20;;;12.00;99.90;;;;;;5096017;28;20048;-77
2022/07/18 03:49:26;;;;;;;6.80;3.83;;;12.00;99.90;;;;;;5096060;28;20067;-77
2022/07/18 03:51:55;;;;;;;6.20;3.40;;;12.00;99.90;;;;;;5096078;28;20044;-77
2022/07/18 03:54:22;;;;;;;8.88;3.13;;;12.00;99.90;;;;;;5095725;28;20036;-77
2022/07/18 03:56:51;;;;;;;7.70;3.47;;;12.00;99.90;;;;;;5095939;28;20044;-77
2022/07/18 03:59:19;;;;;;;11.52;4.07;;;12.10;99.90;;;;;;5095357;28;20040;-77
2022/07/18 04:01:46;;;;;;;12.77;3.70;;;12.20;99.90;;;;;;5077621;28;20048;-77
2022/07/18 04:04:13;;;;;;;7.28;2.92;;;13.00;99.90;;;;;;5095926;28;20074;-77
2022/07/18 04:06:41;;;;;;;5.85;2.97;;;14.10;99.90;;;;;;5080344;28;20134;-77
2022/07/18 04:09:08;;;;;;;6.75;2.47;;;15.10;99.90;;;;;;5097698;28;20047;-76
2022/07/18 04:11:35;;;;;;;6.72;2.88;;;16.10;99.90;;;;;;5097645;28;20086;-78
2022/07/18 04:14:04;;;;;;;5.28;3.17;;;16.90;99.90;;;;;;5077736;28;20056;-78
2022/07/18 04:16:32;;;;;;;5.35;3.10;;;17.60;99.90;;;;;;5077718;28;20044;-77
2022/07/18 04:18:59;;;;;;;7.80;3.40;;;17.90;99.90;;;;;;5095949;28;20036;-78
2022/07/18 04:21:26;;;;;;;5.10;3.40;;;18.40;99.90;;;;;;5077423;28;20194;-77
2022/07/18 04:23:56;;;;;;;10.50;3.35;;;18.80;99.90;;;;;;5095278;28;20044;-77
2022/07/18 04:26:23;;;;;;;8.25;2.63;;;19.20;99.90;;;;;;5081629;28;20457;-77
2022/07/18 04:28:51;;;;;;;6.70;2.63;;;19.70;99.90;;;;;;5113061;28;20052;-77
2022/07/18 04:31:19;;;;;;;4.97;2.65;;;20.30;99.90;;;;;;5105042;28;20055;-76
2022/07/18 04:33:47;;;;;;;16.13;4.05;;;20.70;99.90;;;;;;5099418;28;20071;-76
2022/07/18 04:36:14;;;;;;;9.20;3.28;;;21.10;99.90;;;;;;5099187;28;20040;-77
2022/07/18 04:38:41;;;;;;;7.05;2.80;;;21.50;99.90;;;;;;5101767;28;20040;-77
2022/07/18 04:41:09;;;;;;;5.20;3.03;;;22.20;99.90;;;;;;5107149;28;20055;-78
2022/07/18 04:43:36;;;;;;;7.88;3.38;;;22.70;98.90;;;;;;5110121;28;20130;-77
2022/07/18 04:46:03;;;;;;;6.18;3.17;;;23.60;97.40;;;;;;5110039;28;20042;-77
2022/07/18 04:48:32;;;;;;;6.10;2.70;;;23.80;93.50;;;;;;5095176;28;20110;-77
2022/07/18 04:51:08;;;;;;;8.20;2.72;;;23.40;92.60;;;;;;5095988;28;20062;-76
2022/07/18 04:53:36;;;;;;;5.63;2.60;;;23.70;91.40;;;;;;5095090;28;20054;-77
2022/07/18 04:56:03;;;;;;;7.30;2.47;;;23.80;91.60;;;;;;5096266;28;20055;-77
2022/07/18 04:58:30;;;;;;;8.98;2.55;;;24.60;88.80;;;;;;5096031;28;20070;-77
2022/07/18 05:00:58;;;;;;;11.85;3.58;;;24.60;86.60;;;;;;5095217;28;20043;-78
2022/07/18 05:03:25;;;;;;;10.75;4.07;;;25.10;84.70;;;;;;5076659;28;20074;-78
2022/07/18 05:05:54;;;;;;;8.10;3.95;;;25.10;82.50;;;;;;5095281;28;20039;-77
2022/07/18 05:08:21;;;;;;;8.93;3.40;;;24.30;82.10;;;;;;5077860;28;20100;-77
2022/07/18 05:10:48;;;;;;;10.05;2.60;;;23.00;85.00;;;;;;5096343;28;20036;-77
2022/07/18 05:13:16;;;;;;;15.30;3.20;;;23.10;85.40;;;;;;5079999;28;20051;-77
2022/07/18 05:15:43;;;;;;;8.65;3.50;;;23.20;85.50;;;;;;5107014;28;20074;-77
2022/07/18 05:18:10;;;;;;;6.32;3.03;;;23.80;85.70;;;;;;5103871;28;20044;-78
2022/07/18 05:20:38;;;;;;;6.63;3.00;;;24.70;83.00;;;;;;5102632;28;20093;-77
2022/07/18 05:23:07;;;;;;;7.47;3.20;;;25.40;82.70;;;;;;5100473;28;20044;-78
2022/07/18 05:25:34;;;;;;;9.68;4.35;;;25.30;81.30;;;;;;5084063;28;20044;-76
2022/07/18 05:28:01;;;;;;;10.70;3.08;;;25.40;80.40;;;;;;5101281;28;20055;-78
2022/07/18 05:30:29;;;;;;;7.30;2.58;;;25.70;80.30;;;;;;5081219;28;20067;-76
2022/07/18 05:32:56;;;;;;;6.53;2.80;;;26.10;79.40;;;;;;5098982;28;20075;-77
2022/07/18 05:35:23;;;;;;;6.70;3.33;;;26.00;78.10;;;;;;5099136;28;20520;-77
2022/07/18 05:37:51;;;;;;;12.80;7.50;;;26.10;77.50;;;;;;5082368;28;20044;-78
2022/07/18 05:40:19;;;;;;;6.60;3.58;;;26.00;77.10;;;;;;5100114;28;20039;-77
2022/07/18 05:42:47;;;;;;;10.73;3.65;;;25.80;77.50;;;;;;5098709;28;20529;-77
2022/07/18 05:45:14;;;;;;;7.95;3.90;;;25.50;78.90;;;;;;5099413;28;20043;-77
2022/07/18 05:47:42;;;;;;;7.38;2.67;;;25.00;79.70;;;;;;5080761;28;20052;-77
2022/07/18 05:50:10;;;;;;;10.48;3.25;;;24.80;81.20;;;;;;5100658;28;20498;-77
2022/07/18 05:52:37;;;;;;;8.88;2.53;;;25.20;80.40;;;;;;5100191;28;20554;-76
2022/07/18 05:55:06;;;;;;;4.68;2.83;;;25.20;81.60;;;;;;5082049;28;20522;-77
2022/07/18 05:57:35;;;;;;;16.42;6.32;;;25.10;80.50;;;;;;5100438;28;20051;-76
2022/07/18 06:00:04;;;;;;;8.48;4.88;;;24.50;81.60;;;;;;5098882;28;20105;-78
2022/07/18 06:02:36;;;;;;;8.95;3.63;;;23.90;82.60;;;;;;5098894;28;20507;-76
2022/07/18 06:05:04;;;;;;;9.13;6.15;;;23.60;84.70;;;;;;5099238;28;20071;-76
2022/07/18 06:07:31;;;;;;;7.15;2.53;;;23.40;85.00;;;;;;5081076;28;20051;-77
2022/07/18 06:09:58;;;;;;;11.18;3.20;;;23.30;85.80;;;;;;5099076;28;20043;-76
2022/07/18 06:12:29;;;;;;;5.18;2.53;;;22.40;87.90;;;;;;5099388;28;20048;-75
2022/07/18 06:14:58;;;;;;;10.90;3.05;;;22.10;89.90;;;;;;5106101;28;20044;-77
2022/07/18 06:17:27;;;;;;;9.40;3.63;;;22.20;89.60;;;;;;5087041;28;20127;-77
2022/07/18 06:19:55;;;;;;;8.68;3.40;;;22.50;90.10;;;;;;5108391;28;20070;-77
2022/07/18 06:22:23;;;;;;;10.85;3.42;;;22.60;89.40;;;;;;5100523;28;20047;-77
2022/07/18 06:24:50;;;;;;;11.15;4.13;;;22.50;90.00;;;;;;5106018;28;20487;-77
2022/07/18 06:27:17;;;;;;;10.65;5.30;;;22.50;90.10;;;;;;5111026;28;20132;-77
2022/07/18 06:29:45;;;;;;;16.30;7.35;;;22.20;90.20;;;;;;5104551;28;20117;-77
2022/07/18 06:32:13;;;;;;;22.25;12.32;;;22.50;90.10;;;;;;5113988;28;20044;-78
2022/07/18 06:34:41;;;;;;;37.95;24.73;;;22.40;90.00;;;;;;5115285;28;20044;-77
2022/07/18 06:37:08;;;;;;;51.20;33.95;;;22.30;89.60;;;;;;5116158;28;20490;-78
2022/07/18 06:39:35;;;;;;;23.15;16.08;;;22.40;89.20;;;;;;5116656;28;20055;-79
2022/07/18 06:42:03;;;;;;;25.77;15.38;;;23.00;89.00;;;;;;5098069;28;20503;-76
2022/07/18 06:44:30;;;;;;;22.40;10.95;;;23.40;88.10;;;;;;5115156;28;20554;-77
2022/07/18 06:46:59;;;;;;;17.75;10.52;;;23.60;87.00;;;;;;5096314;28;20059;-77
2022/07/18 06:49:27;;;;;;;14.02;7.82;;;23.90;86.50;;;;;;5112296;28;20068;-77
2022/07/18 06:51:55;;;;;;;14.25;6.78;;;24.20;85.00;;;;;;5086972;28;20052;-77
2022/07/18 06:54:27;;;;;;;13.88;8.18;;;24.50;84.50;;;;;;5087439;28;20056;-77
2022/07/18 06:56:55;;;;;;;15.95;9.27;;;24.80;83.30;;;;;;5087100;28;20052;-77
2022/07/18 06:59:23;;;;;;;19.95;9.10;;;25.00;82.80;;;;;;5084323;28;20111;-79
2022/07/18 07:01:50;;;;;;;18.13;10.35;;;24.90;82.10;;;;;;5102284;28;20463;-77
2022/07/18 07:04:17;;;;;;;24.00;10.27;;;24.70;83.00;;;;;;5099823;28;20044;-78
2022/07/18 07:06:46;;;;;;;19.67;10.90;;;24.70;83.40;;;;;;5098982;28;20051;-79
2022/07/18 07:09:14;;;;;;;22.38;11.60;;;24.70;83.80;;;;;;5079246;28;20391;-79
2022/07/18 07:11:41;;;;;;;19.73;10.60;;;25.00;83.30;;;;;;5079021;28;20052;-78
2022/07/18 07:14:09;;;;;;;9.07;5.97;;;25.30;82.80;;;;;;5097451;28;20044;-78
2022/07/18 07:16:36;;;;;;;11.75;5.95;;;25.40;81.30;;;;;;5096834;28;20037;-78
2022/07/18 07:19:03;;;;;;;14.00;6.68;;;25.30;80.70;;;;;;5098341;28;20094;-77
2022/07/18 07:21:31;;;;;;;12.77;5.80;;;25.50;80.00;;;;;;5096711;28;20437;-77
2022/07/18 07:23:59;;;;;;;12.95;8.65;;;25.60;79.90;;;;;;5097468;28;20446;-77
2022/07/18 07:26:27;;;;;;;11.20;6.65;;;25.60;79.20;;;;;;5097061;28;20399;-75
2022/07/18 07:28:55;;;;;;;10.68;6.65;;;25.50;78.00;;;;;;5098421;28;20044;-76
2022/07/18 07:31:22;;;;;;;10.63;5.38;;;25.50;77.30;;;;;;5097206;28;20044;-77
2022/07/18 07:33:50;;;;;;;13.35;5.90;;;25.70;75.00;;;;;;5097213;28;20082;-75
2022/07/18 07:36:17;;;;;;;8.32;5.93;;;25.90;72.90;;;;;;5097025;28;20036;-76
2022/07/18 07:38:44;;;;;;;11.90;4.90;;;25.90;72.60;;;;;;5079650;28;20499;-76
2022/07/18 07:41:13;;;;;;;9.88;5.43;;;26.00;72.40;;;;;;5097013;28;20070;-77
2022/07/18 07:43:41;;;;;;;6.72;4.30;;;25.90;72.50;;;;;;5096443;28;20047;-76
2022/07/18 07:46:10;;;;;;;9.07;4.55;;;25.60;73.00;;;;;;5096387;28;20032;-77
2022/07/18 07:48:37;;;;;;;8.55;4.80;;;25.50;73.90;;;;;;5096573;28;20500;-76
2022/07/18 07:51:05;;;;;;;8.10;4.07;;;25.70;73.60;;;;;;5097104;28;20040;-78
2022/07/18 07:53:32;;;;;;;11.75;5.60;;;25.90;73.50;;;;;;5078495;28;20058;-78
2022/07/18 07:56:00;;;;;;;9.52;6.25;;;25.70;72.50;;;;;;5096748;28;20437;-77
2022/07/18 07:58:29;;;;;;;9.32;4.40;;;25.90;72.60;;;;;;5077738;28;20055;-78
2022/07/18 08:00:56;;;;;;;9.73;5.25;;;26.20;71.00;;;;;;5096096;28;20467;-77
2022/07/18 08:03:23;;;;;;;9.55;4.53;;;26.50;69.80;;;;;;5077910;28;20059;-76
2022/07/18 08:05:51;;;;;;;7.63;4.28;;;26.40;67.00;;;;;;5096397;28;20098;-79
2022/07/18 08:08:19;;;;;;;9.30;4.60;;;26.30;69.00;;;;;;5096824;28;20093;-77
2022/07/18 08:10:47;;;;;;;10.55;4.10;;;26.30;68.70;;;;;;5095820;28;20040;-77
2022/07/18 08:13:15;;;;;;;7.65;4.63;;;26.30;68.30;;;;;;5095666;28;20523;-78
2022/07/18 08:15:44;;;;;;;12.23;6.25;;;26.60;63.40;;;;;;5096051;28;20066;-77
2022/07/18 08:18:11;;;;;;;12.80;6.50;;;26.90;60.60;;;;;;5078594;28;20046;-80
2022/07/18 08:20:40;;;;;;;7.00;3.03;;;26.90;58.50;;;;;;5080295;28;20123;-76
2022/07/18 08:23:10;;;;;;;5.80;2.97;;;27.00;58.00;;;;;;5094635;28;20082;-79
2022/07/18 08:25:39;;;;;;;13.80;3.38;;;26.80;56.70;;;;;;5116446;28;20097;-78
2022/07/18 08:28:08;;;;;;;7.30;3.22;;;26.70;57.50;;;;;;5114867;28;20044;-77
2022/07/18 08:30:37;;;;;;;8.38;5.88;;;27.00;57.10;;;;;;5096847;28;20487;-80
2022/07/18 08:33:06;;;;;;;6.70;3.17;;;27.20;57.10;;;;;;5095981;28;20482;-78
2022/07/18 08:35:34;;;;;;;16.23;3.90;;;27.30;56.10;;;;;;5095651;28;20044;-78
2022/07/18 08:38:03;;;;;;;6.82;2.95;;;27.20;56.10;;;;;;5096365;28;20043;-79
2022/07/18 08:40:31;;;;;;;6.10;3.10;;;27.00;56.30;;;;;;5096758;28;20040;-79
2022/07/18 08:42:59;;;;;;;5.07;2.90;;;27.10;56.40;;;;;;5095826;28;20119;-78
2022/07/18 08:45:26;;;;;;;9.88;3.40;;;27.20;54.60;;;;;;5096054;28;20063;-77
2022/07/18 08:47:54;;;;;;;6.47;3.25;;;27.10;54.20;;;;;;5096499;28;20105;-78
2022/07/18 08:50:24;;;;;;;9.63;3.40;;;27.10;53.90;;;;;;5095133;28;20074;-76
2022/07/18 08:52:51;;;;;;;7.15;3.30;;;27.20;53.10;;;;;;5094614;28;20108;-77
2022/07/18 08:55:19;;;;;;;8.90;3.33;;;27.30;52.90;;;;;;5095717;28;20044;-79
2022/07/18 08:57:46;;;;;;;5.20;2.05;;;27.50;52.80;;;;;;5077722;28;20101;-78
2022/07/18 09:00:14;;;;;;;6.00;1.88;;;27.50;51.70;;;;;;5078809;28;20391;-78
2022/07/18 09:02:41;;;;;;;10.52;2.55;;;27.50;50.10;;;;;;5076975;28;20048;-77
2022/07/18 09:05:19;;;;;;;4.05;2.10;;;27.60;50.50;;;;;;5078748;28;20048;-77
2022/07/18 09:07:49;;;;;;;7.40;2.72;;;27.70;49.80;;;;;;5096905;28;20115;-78
2022/07/18 09:10:16;;;;;;;8.05;3.70;;;27.70;49.50;;;;;;5097811;28;20444;-77
2022/07/18 09:12:58;;;;;;;5.43;2.30;;;27.90;50.40;;;;;;5095708;28;20043;-78
2022/07/18 09:15:25;;;;;;;4.15;2.17;;;27.90;50.00;;;;;;5095300;28;20471;-77
2022/07/18 09:17:57;;;;;;;7.63;4.13;;;27.90;48.80;;;;;;5095523;28;20032;-78
2022/07/18 09:20:24;;;;;;;9.65;4.63;;;28.00;49.60;;;;;;5096755;28;20044;-78
2022/07/18 09:22:53;;;;;;;5.03;1.42;;;28.10;49.60;;;;;;5096833;28;20036;-78
2022/07/18 09:25:24;;;;;;;7.35;2.80;;;27.70;48.80;;;;;;5098621;28;20094;-80
2022/07/18 09:27:53;;;;;;;6.57;3.90;;;27.40;49.40;;;;;;5103734;28;20414;-78
2022/07/18 09:30:24;;;;;;;7.97;3.20;;;27.40;50.40;;;;;;5104819;28;20040;-78
2022/07/18 09:32:54;;;;;;;4.75;3.20;;;27.70;50.10;;;;;;5105312;28;20067;-77
2022/07/18 09:35:24;;;;;;;5.85;2.58;;;27.80;50.10;;;;;;5091767;28;20063;-78
2022/07/18 09:37:59;;;;;;;4.78;2.72;;;27.90;49.20;;;;;;5103558;28;20048;-78
2022/07/18 09:40:28;;;;;;;4.33;2.30;;;27.70;49.10;;;;;;5102096;28;20055;-77
2022/07/18 09:42:58;;;;;;;7.97;2.60;;;27.60;49.50;;;;;;5098541;28;20036;-79
2022/07/18 09:45:27;;;;;;;6.00;3.70;;;27.70;49.50;;;;;;5102599;28;20101;-78
2022/07/18 09:47:56;;;;;;;6.75;4.45;;;28.00;49.20;;;;;;5104211;28;20040;-76
2022/07/18 09:50:29;;;;;;;7.20;2.65;;;28.10;49.10;;;;;;5101864;28;20040;-76
2022/07/18 09:53:00;;;;;;;5.30;3.40;;;28.00;49.00;;;;;;5076403;28;20491;-76
2022/07/18 09:55:28;;;;;;;5.82;3.40;;;27.90;49.90;;;;;;5095609;28;20051;-77
2022/07/18 09:58:01;;;;;;;11.18;7.63;;;27.90;49.50;;;;;;5077547;28;20036;-75
2022/07/18 10:00:31;;;;;;;9.77;3.20;;;28.20;49.60;;;;;;5077585;28;20044;-76
2022/07/18 10:03:00;;;;;;;5.35;3.08;;;28.30;48.90;;;;;;5076995;28;20044;-77
2022/07/18 10:05:32;;;;;;;5.63;2.88;;;28.20;48.80;;;;;;5101715;28;20056;-77
2022/07/18 10:08:04;;;;;;;8.13;3.47;;;28.20;50.00;;;;;;5083203;28;20044;-76
2022/07/18 10:10:32;;;;;;;4.05;2.83;;;28.20;49.50;;;;;;5106370;28;20081;-77
2022/07/18 10:13:01;;;;;;;11.40;3.42;;;27.80;50.30;;;;;;5119661;27;20027;-78
2022/07/18 10:15:31;;;;;;;6.10;3.22;;;28.00;50.70;;;;;;5120677;28;20042;-77
2022/07/18 10:18:00;;;;;;;9.20;4.95;;;28.10;49.40;;;;;;5116654;28;20036;-77
2022/07/18 10:20:31;;;;;;;6.82;2.83;;;28.10;49.70;;;;;;5107347;28;20048;-77
2022/07/18 10:23:08;;;;;;;5.55;3.67;;;28.30;49.70;;;;;;5099242;28;20044;-77
2022/07/18 10:25:36;;;;;;;5.45;2.88;;;28.30;49.90;;;;;;5099665;28;20484;-76
2022/07/18 10:28:08;;;;;;;5.47;2.75;;;28.30;48.80;;;;;;5099502;28;20544;-77
2022/07/18 10:30:44;;;;;;;10.15;3.90;;;28.30;49.10;;;;;;5100155;28;20517;-75
2022/07/18 10:33:29;;;;;;;;;;;28.40;49.50;;;;;;5081539;28;20054;-76
2022/07/18 10:36:03;;;;;;;9.32;3.20;;;28.30;49.00;;;;;;5098995;28;19929;-78
2022/07/18 10:38:32;;;;;;;5.35;3.28;;;28.40;49.40;;;;;;5097958;28;20673;-76
2022/07/18 10:41:19;;;;;;;3.88;2.45;;;28.30;49.10;;;;;;5097806;28;20089;-76
2022/07/18 10:43:47;;;;;;;7.13;3.75;;;28.30;48.90;;;;;;5072870;28;20052;-76
2022/07/18 10:46:15;;;;;;;7.07;4.55;;;28.20;48.90;;;;;;5097078;28;20113;-77
2022/07/18 10:48:53;;;;;;;7.03;2.85;;;28.10;49.00;;;;;;5096282;28;20048;-77
2022/07/18 10:51:28;;;;;;;3.58;2.10;;;28.20;48.50;;;;;;5096837;28;20502;-77
2022/07/18 10:54:11;;;;;;;6.05;3.88;;;28.20;48.00;;;;;;5097081;28;20044;-76
2022/07/18 10:57:10;;;;;;;6.07;2.88;;;28.30;48.30;;;;;;5097053;28;20461;-76
2022/07/18 10:59:53;;;;;;;12.50;8.07;;;28.60;48.20;;;;;;5098066;28;20040;-77
2022/07/18 11:02:32;;;;;;;10.45;3.42;;;28.70;48.20;;;;;;5094005;28;20165;-75
2022/07/18 11:05:00;;;;;;;5.63;2.30;;;29.00;47.70;;;;;;5097112;28;20051;-75
2022/07/18 11:07:27;;;;;;;5.93;2.10;;;28.90;46.90;;;;;;5096720;28;20032;-77
2022/07/18 11:09:56;;;;;;;7.93;2.70;;;28.80;46.80;;;;;;5096152;28;20487;-78
2022/07/18 11:12:28;;;;;;;5.55;2.25;;;28.80;46.40;;;;;;5078611;28;20048;-75
2022/07/18 11:15:04;;;;;;;6.28;2.25;;;28.80;46.30;;;;;;5096425;28;20165;-76
2022/07/18 11:18:11;;;;;;;6.57;3.60;;;28.40;46.20;;;;;;5096659;28;20460;-76
2022/07/18 11:20:40;;;;;;;;;;;28.60;46.70;;;;;;5098390;28;20445;-77
2022/07/18 11:23:16;;;;;;;4.65;3.17;;;28.60;46.00;;;;;;5078864;28;19959;-76
2022/07/18 11:25:45;;;;;;;8.68;6.57;;;28.60;44.70;;;;;;5096623;28;20055;-75
2022/07/18 11:28:13;;;;;;;6.70;2.38;;;28.30;45.30;;;;;;5078084;28;20040;-75
2022/07/18 11:30:44;;;;;;;5.72;2.03;;;28.30;46.00;;;;;;5079603;28;20092;-77
2022/07/18 11:33:23;;;;;;;5.47;2.45;;;28.30;45.00;;;;;;5097177;28;20040;-77
2022/07/18 11:35:51;;;;;;;6.55;2.55;;;28.30;45.40;;;;;;5097069;28;20040;-76
2022/07/18 11:38:18;;;;;;;5.40;2.25;;;28.50;45.10;;;;;;5096775;28;20044;-78
2022/07/18 11:40:52;;;;;;;6.25;2.20;;;28.60;44.00;;;;;;5078640;28;20097;-77
2022/07/18 11:43:26;;;;;;;3.92;1.85;;;28.50;44.10;;;;;;5097775;28;20116;-77
2022/07/18 11:46:07;;;;;;;5.07;1.60;;;28.30;43.70;;;;;;5098865;28;20105;-77
2022/07/18 11:48:35;;;;;;;4.70;2.00;;;28.00;44.10;;;;;;5079788;28;20051;-76
2022/07/18 11:51:03;;;;;;;4.85;2.00;;;28.20;44.40;;;;;;5096627;28;20082;-75
2022/07/18 11:53:32;;;;;;;3.97;1.77;;;28.40;44.20;;;;;;5096289;28;20048;-77
2022/07/18 11:56:06;;;;;;;3.42;1.92;;;28.40;43.90;;;;;;5098989;28;20077;-76
2022/07/18 11:58:38;;;;;;;8.52;5.38;;;28.50;44.80;;;;;;5098167;28;20035;-77
2022/07/18 12:01:06;;;;;;;4.53;2.38;;;28.60;44.30;;;;;;5097165;28;20170;-76
2022/07/18 12:03:35;;;;;;;5.45;3.05;;;28.50;43.70;;;;;;5096584;28;20116;-76
2022/07/18 12:06:12;;;;;;;3.70;2.05;;;28.50;44.20;;;;;;5096698;28;20044;-76
2022/07/18 12:08:42;;;;;;;11.23;2.60;;;28.60;43.80;;;;;;5077189;28;20387;-78
2022/07/18 12:11:17;;;;;;;8.05;5.63;;;28.60;43.50;;;;;;5096054;28;20047;-76
2022/07/18 12:13:55;;;;;;;4.15;2.03;;;28.20;44.10;;;;;;5096002;28;20079;-77
2022/07/18 12:16:31;;;;;;;3.63;1.85;;;28.30;43.90;;;;;;5097936;28;20105;-76
2022/07/18 12:18:59;;;;;;;;;;;28.20;44.20;;;;;;5096172;28;20044;-76
2022/07/18 12:21:39;;;;;;;4.70;1.60;;;28.30;44.40;;;;;;5097045;28;20418;-76
2022/07/18 12:24:19;;;;;;;5.43;3.05;;;28.40;43.80;;;;;;5096309;28;20135;-76
2022/07/18 12:26:48;;;;;;;5.88;2.00;;;28.30;43.70;;;;;;5076387;28;20044;-76
2022/07/18 12:29:16;;;;;;;7.45;3.30;;;28.40;43.00;;;;;;5077055;28;20098;-77
2022/07/18 12:31:45;;;;;;;4.28;1.83;;;28.40;42.30;;;;;;5077251;28;20054;-76
2022/07/18 12:34:14;;;;;;;3.42;1.33;;;28.30;42.40;;;;;;5094703;28;20044;-76
2022/07/18 12:36:55;;;;;;;5.18;1.42;;;28.30;42.70;;;;;;5077016;28;20499;-77
2022/07/18 12:39:29;;;;;;;4.50;2.40;;;28.40;42.50;;;;;;5077594;28;20052;-76
2022/07/18 12:42:00;;;;;;;2.83;2.08;;;28.30;42.70;;;;;;5097147;28;20556;-77
2022/07/18 12:44:28;;;;;;;3.65;1.50;;;28.40;43.00;;;;;;5096968;28;20460;-77
2022/07/18 12:46:56;;;;;;;7.05;2.03;;;28.40;43.00;;;;;;5095638;28;20043;-77
2022/07/18 12:49:23;;;;;;;5.53;1.60;;;28.10;42.40;;;;;;5094716;28;20059;-76
2022/07/18 12:51:51;;;;;;;3.72;1.27;;;28.20;42.10;;;;;;5096467;28;20068;-76
2022/07/18 12:54:19;;;;;;;6.13;1.90;;;28.00;42.60;;;;;;5095239;28;20044;-76